Главная страница
METAR-TAF:

METAR-TAF

Аэропорты :

York Airport

Йорк, Пенсильвания, США

широта: 39-55-10N, долгота: 076-52-37W, высота над уровнем моря: 146 м

Текущие метеонаблюдения

Эта сводка был подготовлена 41 минут назад, в 03:53 UTC
Ветер 11 Узел от западно-северо-западный с порывами до 17 Узел
Температура 11°C
Влажность 54%
Давление 1009 hPa
Видимость: 16.1 км
Сплошная облачность на высоте 4000 фута

METAR: KTHV 180353Z AUTO 30011G17KT 10SM OVC040 11/02 A2979 RMK AO2 SLP091 T01060022

Время: 00:34 (04:34 UTC)


TAF: отсутствует

Метеонаблюдения и прогнозы для более 4000 аэропортов (сводки METAR и TAF).

Имеющиеся станции представлены на карте желтыми и красными точками.

Чтобы увидеть название станции, наведите на нее мышь.

Затем щелкните, чтобы увидеть метеонаблюдения и метеопрогнозы.

Управление картой: чтобы увеличить масштаб, щелкните зеленые кнопки с черным крестиком; чтобы уменьшить масштаб, щелкните зеленую кнопку с тире; для просмотра соседних карт щелкайте зеленые стрелки.


METAR-TAF: